sensor_id;sensor_type;location;lat;lon;timestamp;P1;durP1;ratioP1;P2;durP2;ratioP2
6642;SDS011;3357;48.050;7.800;2024-01-07T00:01:10;4.10;;;3.53;;
6642;SDS011;3357;48.050;7.800;2024-01-07T00:03:35;12.57;;;4.97;;
6642;SDS011;3357;48.050;7.800;2024-01-07T00:06:01;3.57;;;3.27;;
6642;SDS011;3357;48.050;7.800;2024-01-07T00:08:26;4.27;;;3.87;;
6642;SDS011;3357;48.050;7.800;2024-01-07T00:10:51;4.90;;;4.40;;
6642;SDS011;3357;48.050;7.800;2024-01-07T00:13:16;5.73;;;3.77;;
6642;SDS011;3357;48.050;7.800;2024-01-07T00:15:42;4.60;;;4.20;;
6642;SDS011;3357;48.050;7.800;2024-01-07T00:18:08;5.37;;;4.87;;
6642;SDS011;3357;48.050;7.800;2024-01-07T00:20:33;4.80;;;4.40;;
6642;SDS011;3357;48.050;7.800;2024-01-07T00:22:58;6.27;;;4.50;;
6642;SDS011;3357;48.050;7.800;2024-01-07T00:25:24;5.37;;;4.33;;
6642;SDS011;3357;48.050;7.800;2024-01-07T00:27:49;8.70;;;5.03;;
6642;SDS011;3357;48.050;7.800;2024-01-07T00:30:16;5.93;;;5.17;;
6642;SDS011;3357;48.050;7.800;2024-01-07T00:32:41;6.40;;;5.00;;
6642;SDS011;3357;48.050;7.800;2024-01-07T00:35:07;8.00;;;4.80;;
6642;SDS011;3357;48.050;7.800;2024-01-07T00:37:32;6.40;;;4.53;;
6642;SDS011;3357;48.050;7.800;2024-01-07T00:39:59;6.50;;;5.30;;
6642;SDS011;3357;48.050;7.800;2024-01-07T00:42:25;7.43;;;5.00;;
6642;SDS011;3357;48.050;7.800;2024-01-07T00:44:50;8.17;;;5.80;;
6642;SDS011;3357;48.050;7.800;2024-01-07T00:47:15;10.13;;;5.83;;
6642;SDS011;3357;48.050;7.800;2024-01-07T00:49:41;5.93;;;5.00;;
6642;SDS011;3357;48.050;7.800;2024-01-07T00:52:06;11.43;;;6.37;;
6642;SDS011;3357;48.050;7.800;2024-01-07T00:54:31;9.07;;;6.17;;
6642;SDS011;3357;48.050;7.800;2024-01-07T00:56:57;9.40;;;6.50;;
6642;SDS011;3357;48.050;7.800;2024-01-07T00:59:22;11.90;;;7.47;;
6642;SDS011;3357;48.050;7.800;2024-01-07T01:01:48;8.73;;;5.63;;
6642;SDS011;3357;48.050;7.800;2024-01-07T01:04:13;6.53;;;5.27;;
6642;SDS011;3357;48.050;7.800;2024-01-07T01:06:38;5.37;;;4.60;;
6642;SDS011;3357;48.050;7.800;2024-01-07T01:09:03;6.67;;;4.90;;
6642;SDS011;3357;48.050;7.800;2024-01-07T01:11:29;8.17;;;5.73;;
6642;SDS011;3357;48.050;7.800;2024-01-07T01:13:54;10.27;;;6.60;;
6642;SDS011;3357;48.050;7.800;2024-01-07T01:16:19;11.20;;;6.43;;
6642;SDS011;3357;48.050;7.800;2024-01-07T01:18:45;13.73;;;7.93;;
6642;SDS011;3357;48.050;7.800;2024-01-07T01:21:10;13.37;;;7.70;;
6642;SDS011;3357;48.050;7.800;2024-01-07T01:23:37;12.27;;;7.97;;
6642;SDS011;3357;48.050;7.800;2024-01-07T01:26:02;10.87;;;7.50;;
6642;SDS011;3357;48.050;7.800;2024-01-07T01:28:27;12.20;;;6.83;;
6642;SDS011;3357;48.050;7.800;2024-01-07T01:30:52;10.50;;;7.20;;
6642;SDS011;3357;48.050;7.800;2024-01-07T01:33:18;10.10;;;6.63;;
6642;SDS011;3357;48.050;7.800;2024-01-07T01:35:43;10.10;;;6.13;;
6642;SDS011;3357;48.050;7.800;2024-01-07T01:38:08;13.97;;;7.33;;
6642;SDS011;3357;48.050;7.800;2024-01-07T01:40:34;6.90;;;5.03;;
6642;SDS011;3357;48.050;7.800;2024-01-07T01:42:59;9.73;;;6.63;;
6642;SDS011;3357;48.050;7.800;2024-01-07T01:45:24;12.50;;;7.17;;
6642;SDS011;3357;48.050;7.800;2024-01-07T01:47:50;9.97;;;6.20;;
6642;SDS011;3357;48.050;7.800;2024-01-07T01:50:15;12.30;;;7.20;;
6642;SDS011;3357;48.050;7.800;2024-01-07T01:52:42;12.50;;;6.40;;
6642;SDS011;3357;48.050;7.800;2024-01-07T01:55:09;11.57;;;6.90;;
6642;SDS011;3357;48.050;7.800;2024-01-07T01:57:34;14.33;;;7.70;;
6642;SDS011;3357;48.050;7.800;2024-01-07T02:00:02;13.50;;;6.90;;
6642;SDS011;3357;48.050;7.800;2024-01-07T02:02:30;12.90;;;7.47;;
6642;SDS011;3357;48.050;7.800;2024-01-07T02:05:02;12.30;;;7.50;;
6642;SDS011;3357;48.050;7.800;2024-01-07T02:07:28;11.47;;;6.90;;
6642;SDS011;3357;48.050;7.800;2024-01-07T02:09:54;13.53;;;8.17;;
6642;SDS011;3357;48.050;7.800;2024-01-07T02:12:19;14.37;;;6.97;;
6642;SDS011;3357;48.050;7.800;2024-01-07T02:14:45;8.50;;;6.23;;
6642;SDS011;3357;48.050;7.800;2024-01-07T02:17:10;11.20;;;6.77;;
6642;SDS011;3357;48.050;7.800;2024-01-07T02:19:35;11.10;;;6.17;;
6642;SDS011;3357;48.050;7.800;2024-01-07T02:22:00;13.20;;;6.60;;
6642;SDS011;3357;48.050;7.800;2024-01-07T02:24:25;7.07;;;5.40;;
6642;SDS011;3357;48.050;7.800;2024-01-07T02:26:51;10.47;;;5.87;;
6642;SDS011;3357;48.050;7.800;2024-01-07T02:29:16;9.13;;;5.77;;
6642;SDS011;3357;48.050;7.800;2024-01-07T02:31:41;8.13;;;5.30;;
6642;SDS011;3357;48.050;7.800;2024-01-07T02:34:09;10.17;;;5.10;;
6642;SDS011;3357;48.050;7.800;2024-01-07T02:36:35;8.23;;;5.33;;
6642;SDS011;3357;48.050;7.800;2024-01-07T02:39:00;7.17;;;4.17;;
6642;SDS011;3357;48.050;7.800;2024-01-07T02:41:25;6.17;;;4.77;;
6642;SDS011;3357;48.050;7.800;2024-01-07T02:43:51;5.77;;;4.23;;
6642;SDS011;3357;48.050;7.800;2024-01-07T02:46:17;7.00;;;4.30;;
6642;SDS011;3357;48.050;7.800;2024-01-07T02:48:42;8.43;;;5.00;;
6642;SDS011;3357;48.050;7.800;2024-01-07T02:51:08;8.80;;;5.47;;
6642;SDS011;3357;48.050;7.800;2024-01-07T02:53:33;6.43;;;4.07;;
6642;SDS011;3357;48.050;7.800;2024-01-07T02:55:59;9.13;;;5.17;;
6642;SDS011;3357;48.050;7.800;2024-01-07T02:58:24;6.77;;;5.17;;
6642;SDS011;3357;48.050;7.800;2024-01-07T03:00:49;9.60;;;5.70;;
6642;SDS011;3357;48.050;7.800;2024-01-07T03:03:15;9.60;;;5.50;;
6642;SDS011;3357;48.050;7.800;2024-01-07T03:05:40;11.63;;;5.73;;
6642;SDS011;3357;48.050;7.800;2024-01-07T03:08:05;6.83;;;4.60;;
6642;SDS011;3357;48.050;7.800;2024-01-07T03:10:31;7.10;;;4.77;;
6642;SDS011;3357;48.050;7.800;2024-01-07T03:12:56;6.43;;;4.87;;
6642;SDS011;3357;48.050;7.800;2024-01-07T03:15:21;7.10;;;4.97;;
6642;SDS011;3357;48.050;7.800;2024-01-07T03:17:47;9.60;;;6.00;;
6642;SDS011;3357;48.050;7.800;2024-01-07T03:20:12;7.30;;;4.73;;
6642;SDS011;3357;48.050;7.800;2024-01-07T03:22:37;7.87;;;4.97;;
6642;SDS011;3357;48.050;7.800;2024-01-07T03:25:03;10.20;;;6.20;;
6642;SDS011;3357;48.050;7.800;2024-01-07T03:27:28;7.70;;;5.67;;
6642;SDS011;3357;48.050;7.800;2024-01-07T03:29:54;10.70;;;6.40;;
6642;SDS011;3357;48.050;7.800;2024-01-07T03:32:19;9.03;;;6.00;;
6642;SDS011;3357;48.050;7.800;2024-01-07T03:34:44;12.43;;;6.50;;
6642;SDS011;3357;48.050;7.800;2024-01-07T03:37:09;12.70;;;6.23;;
6642;SDS011;3357;48.050;7.800;2024-01-07T03:39:35;14.53;;;6.80;;
6642;SDS011;3357;48.050;7.800;2024-01-07T03:42:00;13.03;;;6.60;;
6642;SDS011;3357;48.050;7.800;2024-01-07T03:44:25;11.60;;;6.53;;
6642;SDS011;3357;48.050;7.800;2024-01-07T03:46:51;9.53;;;6.67;;
6642;SDS011;3357;48.050;7.800;2024-01-07T03:49:16;9.87;;;6.10;;
6642;SDS011;3357;48.050;7.800;2024-01-07T03:51:43;12.13;;;6.13;;
6642;SDS011;3357;48.050;7.800;2024-01-07T03:54:09;8.50;;;5.47;;
6642;SDS011;3357;48.050;7.800;2024-01-07T03:56:34;9.20;;;6.10;;
6642;SDS011;3357;48.050;7.800;2024-01-07T03:58:59;11.30;;;6.60;;
6642;SDS011;3357;48.050;7.800;2024-01-07T04:01:25;10.90;;;6.23;;
6642;SDS011;3357;48.050;7.800;2024-01-07T04:03:50;9.90;;;6.50;;
6642;SDS011;3357;48.050;7.800;2024-01-07T04:06:15;14.40;;;7.70;;
6642;SDS011;3357;48.050;7.800;2024-01-07T04:08:41;12.50;;;7.13;;
6642;SDS011;3357;48.050;7.800;2024-01-07T04:11:06;14.80;;;8.20;;
6642;SDS011;3357;48.050;7.800;2024-01-07T04:13:31;12.87;;;7.73;;
6642;SDS011;3357;48.050;7.800;2024-01-07T04:15:56;16.20;;;7.80;;
6642;SDS011;3357;48.050;7.800;2024-01-07T04:18:22;15.43;;;8.57;;
6642;SDS011;3357;48.050;7.800;2024-01-07T04:20:47;17.00;;;8.80;;
6642;SDS011;3357;48.050;7.800;2024-01-07T04:23:12;13.40;;;7.83;;
6642;SDS011;3357;48.050;7.800;2024-01-07T04:25:38;15.70;;;8.33;;
6642;SDS011;3357;48.050;7.800;2024-01-07T04:28:04;17.70;;;9.07;;
6642;SDS011;3357;48.050;7.800;2024-01-07T04:30:29;13.90;;;8.40;;
6642;SDS011;3357;48.050;7.800;2024-01-07T04:32:54;16.33;;;9.00;;
6642;SDS011;3357;48.050;7.800;2024-01-07T04:35:19;17.27;;;9.80;;
6642;SDS011;3357;48.050;7.800;2024-01-07T04:37:45;18.43;;;9.37;;
6642;SDS011;3357;48.050;7.800;2024-01-07T04:40:10;20.60;;;10.20;;
6642;SDS011;3357;48.050;7.800;2024-01-07T04:42:36;20.50;;;8.70;;
6642;SDS011;3357;48.050;7.800;2024-01-07T04:45:01;17.67;;;9.27;;
6642;SDS011;3357;48.050;7.800;2024-01-07T04:47:27;14.97;;;8.73;;
6642;SDS011;3357;48.050;7.800;2024-01-07T04:49:56;18.33;;;9.10;;
6642;SDS011;3357;48.050;7.800;2024-01-07T04:52:22;16.83;;;9.30;;
6642;SDS011;3357;48.050;7.800;2024-01-07T04:54:48;14.93;;;8.57;;
6642;SDS011;3357;48.050;7.800;2024-01-07T04:57:13;15.37;;;7.90;;
6642;SDS011;3357;48.050;7.800;2024-01-07T04:59:38;14.10;;;8.13;;
6642;SDS011;3357;48.050;7.800;2024-01-07T05:02:04;12.97;;;6.93;;
6642;SDS011;3357;48.050;7.800;2024-01-07T05:04:29;14.40;;;8.03;;
6642;SDS011;3357;48.050;7.800;2024-01-07T05:06:55;13.40;;;8.13;;
6642;SDS011;3357;48.050;7.800;2024-01-07T05:09:20;12.83;;;7.37;;
6642;SDS011;3357;48.050;7.800;2024-01-07T05:11:45;12.07;;;7.80;;
6642;SDS011;3357;48.050;7.800;2024-01-07T05:14:11;11.87;;;6.77;;
6642;SDS011;3357;48.050;7.800;2024-01-07T05:16:36;12.33;;;6.97;;
6642;SDS011;3357;48.050;7.800;2024-01-07T05:19:01;11.47;;;7.07;;
6642;SDS011;3357;48.050;7.800;2024-01-07T05:21:27;10.00;;;6.30;;
6642;SDS011;3357;48.050;7.800;2024-01-07T05:23:52;12.93;;;7.40;;
6642;SDS011;3357;48.050;7.800;2024-01-07T05:26:17;10.20;;;6.43;;
6642;SDS011;3357;48.050;7.800;2024-01-07T05:28:42;9.53;;;5.90;;
6642;SDS011;3357;48.050;7.800;2024-01-07T05:31:17;8.53;;;5.93;;
6642;SDS011;3357;48.050;7.800;2024-01-07T05:33:43;9.70;;;6.50;;
6642;SDS011;3357;48.050;7.800;2024-01-07T05:36:09;16.33;;;7.53;;
6642;SDS011;3357;48.050;7.800;2024-01-07T05:38:36;7.70;;;5.77;;
6642;SDS011;3357;48.050;7.800;2024-01-07T05:41:01;6.63;;;5.30;;
6642;SDS011;3357;48.050;7.800;2024-01-07T05:43:26;6.90;;;5.10;;
6642;SDS011;3357;48.050;7.800;2024-01-07T05:45:51;5.60;;;4.03;;
6642;SDS011;3357;48.050;7.800;2024-01-07T05:48:16;4.93;;;4.00;;
6642;SDS011;3357;48.050;7.800;2024-01-07T05:50:42;4.90;;;3.30;;
6642;SDS011;3357;48.050;7.800;2024-01-07T05:53:07;4.37;;;3.40;;
6642;SDS011;3357;48.050;7.800;2024-01-07T05:55:32;6.53;;;3.33;;
6642;SDS011;3357;48.050;7.800;2024-01-07T05:57:58;7.77;;;4.63;;
6642;SDS011;3357;48.050;7.800;2024-01-07T06:00:23;4.80;;;3.97;;
6642;SDS011;3357;48.050;7.800;2024-01-07T06:02:48;4.87;;;3.60;;
6642;SDS011;3357;48.050;7.800;2024-01-07T06:05:14;4.77;;;3.77;;
6642;SDS011;3357;48.050;7.800;2024-01-07T06:07:39;7.17;;;4.17;;
6642;SDS011;3357;48.050;7.800;2024-01-07T06:10:04;6.23;;;4.10;;
6642;SDS011;3357;48.050;7.800;2024-01-07T06:12:31;7.77;;;3.60;;
6642;SDS011;3357;48.050;7.800;2024-01-07T06:14:56;6.63;;;4.33;;
6642;SDS011;3357;48.050;7.800;2024-01-07T06:17:21;6.20;;;3.90;;
6642;SDS011;3357;48.050;7.800;2024-01-07T06:19:47;5.97;;;4.13;;
6642;SDS011;3357;48.050;7.800;2024-01-07T06:22:12;9.90;;;4.70;;
6642;SDS011;3357;48.050;7.800;2024-01-07T06:24:37;5.50;;;3.80;;
6642;SDS011;3357;48.050;7.800;2024-01-07T06:27:03;5.90;;;3.73;;
6642;SDS011;3357;48.050;7.800;2024-01-07T06:29:29;6.53;;;4.80;;
6642;SDS011;3357;48.050;7.800;2024-01-07T06:31:54;7.77;;;4.63;;
6642;SDS011;3357;48.050;7.800;2024-01-07T06:34:19;9.40;;;4.87;;
6642;SDS011;3357;48.050;7.800;2024-01-07T06:36:46;9.67;;;4.93;;
6642;SDS011;3357;48.050;7.800;2024-01-07T06:39:11;6.50;;;3.90;;
6642;SDS011;3357;48.050;7.800;2024-01-07T06:41:36;7.27;;;4.27;;
6642;SDS011;3357;48.050;7.800;2024-01-07T06:44:02;8.37;;;4.60;;
6642;SDS011;3357;48.050;7.800;2024-01-07T06:46:28;7.93;;;4.07;;
6642;SDS011;3357;48.050;7.800;2024-01-07T06:48:53;5.80;;;3.60;;
6642;SDS011;3357;48.050;7.800;2024-01-07T06:51:18;5.37;;;3.33;;
6642;SDS011;3357;48.050;7.800;2024-01-07T06:53:43;8.37;;;3.90;;
6642;SDS011;3357;48.050;7.800;2024-01-07T06:56:09;5.93;;;4.07;;
6642;SDS011;3357;48.050;7.800;2024-01-07T06:58:34;4.80;;;3.03;;
6642;SDS011;3357;48.050;7.800;2024-01-07T07:00:59;3.23;;;2.83;;
6642;SDS011;3357;48.050;7.800;2024-01-07T07:03:24;7.60;;;3.60;;
6642;SDS011;3357;48.050;7.800;2024-01-07T07:05:50;4.97;;;3.63;;
6642;SDS011;3357;48.050;7.800;2024-01-07T07:08:16;5.60;;;4.10;;
6642;SDS011;3357;48.050;7.800;2024-01-07T07:10:41;8.37;;;3.87;;
6642;SDS011;3357;48.050;7.800;2024-01-07T07:13:06;8.53;;;3.47;;
6642;SDS011;3357;48.050;7.800;2024-01-07T07:15:31;10.37;;;5.20;;
6642;SDS011;3357;48.050;7.800;2024-01-07T07:17:57;7.60;;;3.37;;
6642;SDS011;3357;48.050;7.800;2024-01-07T07:20:22;7.23;;;4.50;;
6642;SDS011;3357;48.050;7.800;2024-01-07T07:22:47;12.37;;;5.50;;
6642;SDS011;3357;48.050;7.800;2024-01-07T07:25:12;11.63;;;5.43;;
6642;SDS011;3357;48.050;7.800;2024-01-07T07:27:38;11.27;;;5.53;;
6642;SDS011;3357;48.050;7.800;2024-01-07T07:30:04;14.70;;;5.50;;
6642;SDS011;3357;48.050;7.800;2024-01-07T07:32:30;10.53;;;5.33;;
6642;SDS011;3357;48.050;7.800;2024-01-07T07:34:55;13.10;;;6.10;;
6642;SDS011;3357;48.050;7.800;2024-01-07T07:37:20;16.47;;;6.50;;
6642;SDS011;3357;48.050;7.800;2024-01-07T07:39:46;13.97;;;6.10;;
6642;SDS011;3357;48.050;7.800;2024-01-07T07:42:11;15.53;;;7.17;;
6642;SDS011;3357;48.050;7.800;2024-01-07T07:44:36;20.83;;;6.87;;
6642;SDS011;3357;48.050;7.800;2024-01-07T07:47:01;13.23;;;7.00;;
6642;SDS011;3357;48.050;7.800;2024-01-07T07:49:27;19.50;;;7.73;;
6642;SDS011;3357;48.050;7.800;2024-01-07T07:51:52;14.27;;;7.37;;
6642;SDS011;3357;48.050;7.800;2024-01-07T07:54:17;13.90;;;6.93;;
6642;SDS011;3357;48.050;7.800;2024-01-07T07:56:43;18.17;;;7.47;;
6642;SDS011;3357;48.050;7.800;2024-01-07T07:59:08;14.80;;;6.80;;
6642;SDS011;3357;48.050;7.800;2024-01-07T08:01:34;16.03;;;7.60;;
6642;SDS011;3357;48.050;7.800;2024-01-07T08:03:59;14.47;;;7.43;;
6642;SDS011;3357;48.050;7.800;2024-01-07T08:06:24;10.77;;;6.67;;
6642;SDS011;3357;48.050;7.800;2024-01-07T08:08:50;11.53;;;6.57;;
6642;SDS011;3357;48.050;7.800;2024-01-07T08:11:15;10.00;;;5.70;;
6642;SDS011;3357;48.050;7.800;2024-01-07T08:13:40;7.07;;;4.77;;
6642;SDS011;3357;48.050;7.800;2024-01-07T08:16:06;10.73;;;5.40;;
6642;SDS011;3357;48.050;7.800;2024-01-07T08:18:32;7.20;;;4.50;;
6642;SDS011;3357;48.050;7.800;2024-01-07T08:20:57;5.73;;;4.00;;
6642;SDS011;3357;48.050;7.800;2024-01-07T08:23:26;7.97;;;4.70;;
6642;SDS011;3357;48.050;7.800;2024-01-07T08:25:51;8.27;;;4.30;;
6642;SDS011;3357;48.050;7.800;2024-01-07T08:28:17;8.33;;;5.73;;
6642;SDS011;3357;48.050;7.800;2024-01-07T08:30:42;7.57;;;5.17;;
6642;SDS011;3357;48.050;7.800;2024-01-07T08:33:09;10.90;;;5.77;;
6642;SDS011;3357;48.050;7.800;2024-01-07T08:35:34;8.70;;;5.23;;
6642;SDS011;3357;48.050;7.800;2024-01-07T08:38:00;8.40;;;5.30;;
6642;SDS011;3357;48.050;7.800;2024-01-07T08:40:25;9.53;;;5.67;;
6642;SDS011;3357;48.050;7.800;2024-01-07T08:42:50;11.83;;;6.50;;
6642;SDS011;3357;48.050;7.800;2024-01-07T08:45:15;9.67;;;5.40;;
6642;SDS011;3357;48.050;7.800;2024-01-07T08:47:41;14.63;;;6.27;;
6642;SDS011;3357;48.050;7.800;2024-01-07T08:50:06;16.00;;;8.10;;
6642;SDS011;3357;48.050;7.800;2024-01-07T08:52:32;15.27;;;8.20;;
6642;SDS011;3357;48.050;7.800;2024-01-07T08:55:00;26.03;;;11.80;;
6642;SDS011;3357;48.050;7.800;2024-01-07T08:57:26;19.57;;;8.53;;
6642;SDS011;3357;48.050;7.800;2024-01-07T08:59:51;18.57;;;8.50;;
6642;SDS011;3357;48.050;7.800;2024-01-07T09:02:17;25.93;;;12.40;;
6642;SDS011;3357;48.050;7.800;2024-01-07T09:04:42;21.93;;;8.50;;
6642;SDS011;3357;48.050;7.800;2024-01-07T09:07:08;20.80;;;8.30;;
6642;SDS011;3357;48.050;7.800;2024-01-07T09:09:33;15.47;;;8.40;;
6642;SDS011;3357;48.050;7.800;2024-01-07T09:11:58;16.17;;;8.20;;
6642;SDS011;3357;48.050;7.800;2024-01-07T09:14:25;17.27;;;9.10;;
6642;SDS011;3357;48.050;7.800;2024-01-07T09:16:50;15.33;;;7.53;;
6642;SDS011;3357;48.050;7.800;2024-01-07T09:19:16;24.57;;;9.70;;
6642;SDS011;3357;48.050;7.800;2024-01-07T09:21:42;23.33;;;9.83;;
6642;SDS011;3357;48.050;7.800;2024-01-07T09:24:08;14.67;;;7.70;;
6642;SDS011;3357;48.050;7.800;2024-01-07T09:26:34;18.77;;;9.50;;
6642;SDS011;3357;48.050;7.800;2024-01-07T09:28:59;16.97;;;8.83;;
6642;SDS011;3357;48.050;7.800;2024-01-07T09:31:24;17.80;;;8.60;;
6642;SDS011;3357;48.050;7.800;2024-01-07T09:33:50;15.43;;;8.20;;
6642;SDS011;3357;48.050;7.800;2024-01-07T09:36:15;17.10;;;8.90;;
6642;SDS011;3357;48.050;7.800;2024-01-07T09:38:41;18.40;;;8.90;;
6642;SDS011;3357;48.050;7.800;2024-01-07T09:41:06;15.93;;;7.70;;
6642;SDS011;3357;48.050;7.800;2024-01-07T09:43:32;19.77;;;9.40;;
6642;SDS011;3357;48.050;7.800;2024-01-07T09:45:57;16.13;;;8.57;;
6642;SDS011;3357;48.050;7.800;2024-01-07T09:48:23;17.73;;;8.50;;
6642;SDS011;3357;48.050;7.800;2024-01-07T09:50:49;20.90;;;9.97;;
6642;SDS011;3357;48.050;7.800;2024-01-07T09:53:16;17.83;;;8.60;;
6642;SDS011;3357;48.050;7.800;2024-01-07T09:55:47;14.97;;;8.17;;
6642;SDS011;3357;48.050;7.800;2024-01-07T09:58:26;17.97;;;9.17;;
6642;SDS011;3357;48.050;7.800;2024-01-07T10:00:52;17.10;;;9.87;;
6642;SDS011;3357;48.050;7.800;2024-01-07T10:03:18;25.63;;;9.67;;
6642;SDS011;3357;48.050;7.800;2024-01-07T10:05:43;17.60;;;9.30;;
6642;SDS011;3357;48.050;7.800;2024-01-07T10:08:09;17.27;;;9.33;;
6642;SDS011;3357;48.050;7.800;2024-01-07T10:10:34;19.20;;;9.43;;
6642;SDS011;3357;48.050;7.800;2024-01-07T10:13:00;14.60;;;8.93;;
6642;SDS011;3357;48.050;7.800;2024-01-07T10:15:25;17.67;;;9.70;;
6642;SDS011;3357;48.050;7.800;2024-01-07T10:17:54;16.53;;;8.93;;
6642;SDS011;3357;48.050;7.800;2024-01-07T10:20:20;17.03;;;9.40;;
6642;SDS011;3357;48.050;7.800;2024-01-07T10:22:51;21.30;;;10.20;;
6642;SDS011;3357;48.050;7.800;2024-01-07T10:25:18;14.33;;;8.90;;
6642;SDS011;3357;48.050;7.800;2024-01-07T10:27:43;19.70;;;9.20;;
6642;SDS011;3357;48.050;7.800;2024-01-07T10:30:09;14.33;;;8.30;;
6642;SDS011;3357;48.050;7.800;2024-01-07T10:32:37;17.53;;;9.60;;
6642;SDS011;3357;48.050;7.800;2024-01-07T10:35:03;19.87;;;9.03;;
6642;SDS011;3357;48.050;7.800;2024-01-07T10:37:32;17.77;;;8.30;;
6642;SDS011;3357;48.050;7.800;2024-01-07T10:39:58;16.27;;;8.97;;
6642;SDS011;3357;48.050;7.800;2024-01-07T10:42:31;10.93;;;7.30;;
6642;SDS011;3357;48.050;7.800;2024-01-07T10:44:57;10.90;;;6.70;;
6642;SDS011;3357;48.050;7.800;2024-01-07T10:47:23;11.70;;;7.07;;
6642;SDS011;3357;48.050;7.800;2024-01-07T10:49:52;9.93;;;6.37;;
6642;SDS011;3357;48.050;7.800;2024-01-07T10:52:19;11.43;;;6.77;;
6642;SDS011;3357;48.050;7.800;2024-01-07T10:54:45;14.10;;;7.60;;
6642;SDS011;3357;48.050;7.800;2024-01-07T10:57:13;17.40;;;6.57;;
6642;SDS011;3357;48.050;7.800;2024-01-07T11:00:02;7.90;;;5.97;;
6642;SDS011;3357;48.050;7.800;2024-01-07T11:02:34;9.77;;;6.20;;
6642;SDS011;3357;48.050;7.800;2024-01-07T11:07:43;7.60;;;5.60;;
6642;SDS011;3357;48.050;7.800;2024-01-07T11:10:16;9.03;;;5.37;;
6642;SDS011;3357;48.050;7.800;2024-01-07T11:12:48;9.00;;;5.00;;
6642;SDS011;3357;48.050;7.800;2024-01-07T11:15:50;11.03;;;6.00;;
6642;SDS011;3357;48.050;7.800;2024-01-07T11:18:19;7.83;;;5.00;;
6642;SDS011;3357;48.050;7.800;2024-01-07T11:20:47;5.33;;;4.80;;
6642;SDS011;3357;48.050;7.800;2024-01-07T11:23:32;11.43;;;5.03;;
6642;SDS011;3357;48.050;7.800;2024-01-07T11:26:01;6.33;;;5.07;;
6642;SDS011;3357;48.050;7.800;2024-01-07T11:28:43;6.90;;;4.70;;
6642;SDS011;3357;48.050;7.800;2024-01-07T11:31:09;7.17;;;4.57;;
6642;SDS011;3357;48.050;7.800;2024-01-07T11:33:38;6.73;;;4.50;;
6642;SDS011;3357;48.050;7.800;2024-01-07T11:36:06;5.67;;;4.10;;
6642;SDS011;3357;48.050;7.800;2024-01-07T11:38:33;6.67;;;4.90;;
6642;SDS011;3357;48.050;7.800;2024-01-07T11:40:59;6.40;;;4.73;;
6642;SDS011;3357;48.050;7.800;2024-01-07T11:43:25;6.90;;;4.43;;
6642;SDS011;3357;48.050;7.800;2024-01-07T11:45:51;7.30;;;4.50;;
6642;SDS011;3357;48.050;7.800;2024-01-07T11:48:17;7.20;;;4.53;;
6642;SDS011;3357;48.050;7.800;2024-01-07T11:50:45;7.07;;;5.40;;
6642;SDS011;3357;48.050;7.800;2024-01-07T11:53:13;9.50;;;5.70;;
6642;SDS011;3357;48.050;7.800;2024-01-07T11:55:38;9.40;;;5.90;;
6642;SDS011;3357;48.050;7.800;2024-01-07T11:58:04;7.60;;;5.17;;
6642;SDS011;3357;48.050;7.800;2024-01-07T12:00:33;8.47;;;5.40;;
6642;SDS011;3357;48.050;7.800;2024-01-07T12:02:59;8.57;;;5.80;;
6642;SDS011;3357;48.050;7.800;2024-01-07T12:05:25;10.03;;;6.40;;
6642;SDS011;3357;48.050;7.800;2024-01-07T12:07:51;8.30;;;5.90;;
6642;SDS011;3357;48.050;7.800;2024-01-07T12:10:16;5.83;;;4.53;;
6642;SDS011;3357;48.050;7.800;2024-01-07T12:12:42;6.30;;;4.70;;
6642;SDS011;3357;48.050;7.800;2024-01-07T12:15:08;6.37;;;4.53;;
6642;SDS011;3357;48.050;7.800;2024-01-07T12:17:36;8.33;;;4.57;;
6642;SDS011;3357;48.050;7.800;2024-01-07T12:20:01;6.77;;;5.50;;
6642;SDS011;3357;48.050;7.800;2024-01-07T12:22:29;8.57;;;4.87;;
6642;SDS011;3357;48.050;7.800;2024-01-07T12:25:02;7.20;;;5.30;;
6642;SDS011;3357;48.050;7.800;2024-01-07T12:27:28;6.10;;;5.50;;
6642;SDS011;3357;48.050;7.800;2024-01-07T12:29:59;8.20;;;5.20;;
6642;SDS011;3357;48.050;7.800;2024-01-07T12:32:28;6.70;;;4.83;;
6642;SDS011;3357;48.050;7.800;2024-01-07T12:34:58;10.10;;;5.60;;
6642;SDS011;3357;48.050;7.800;2024-01-07T12:37:27;5.27;;;4.37;;
6642;SDS011;3357;48.050;7.800;2024-01-07T12:39:52;9.57;;;5.80;;
6642;SDS011;3357;48.050;7.800;2024-01-07T12:42:18;6.93;;;5.33;;
6642;SDS011;3357;48.050;7.800;2024-01-07T12:44:45;5.70;;;5.10;;
6642;SDS011;3357;48.050;7.800;2024-01-07T12:47:10;7.40;;;5.13;;
6642;SDS011;3357;48.050;7.800;2024-01-07T12:49:36;9.40;;;5.57;;
6642;SDS011;3357;48.050;7.800;2024-01-07T12:52:01;8.57;;;6.30;;
6642;SDS011;3357;48.050;7.800;2024-01-07T12:54:26;46.33;;;18.30;;
6642;SDS011;3357;48.050;7.800;2024-01-07T12:56:51;21.20;;;11.77;;
6642;SDS011;3357;48.050;7.800;2024-01-07T12:59:17;11.50;;;6.90;;
6642;SDS011;3357;48.050;7.800;2024-01-07T13:01:42;11.83;;;7.40;;
6642;SDS011;3357;48.050;7.800;2024-01-07T13:04:07;12.20;;;7.23;;
6642;SDS011;3357;48.050;7.800;2024-01-07T13:06:34;9.70;;;7.00;;
6642;SDS011;3357;48.050;7.800;2024-01-07T13:08:59;9.60;;;6.90;;
6642;SDS011;3357;48.050;7.800;2024-01-07T13:11:25;8.63;;;6.30;;
6642;SDS011;3357;48.050;7.800;2024-01-07T13:13:50;9.90;;;6.60;;
6642;SDS011;3357;48.050;7.800;2024-01-07T13:16:15;11.10;;;7.30;;
6642;SDS011;3357;48.050;7.800;2024-01-07T13:18:40;11.90;;;6.53;;
6642;SDS011;3357;48.050;7.800;2024-01-07T13:21:05;8.80;;;6.73;;
6642;SDS011;3357;48.050;7.800;2024-01-07T13:23:31;15.07;;;7.73;;
6642;SDS011;3357;48.050;7.800;2024-01-07T13:25:57;13.37;;;8.13;;
6642;SDS011;3357;48.050;7.800;2024-01-07T13:28:23;10.30;;;6.97;;
6642;SDS011;3357;48.050;7.800;2024-01-07T13:30:48;10.20;;;6.57;;
6642;SDS011;3357;48.050;7.800;2024-01-07T13:33:13;9.43;;;5.97;;
6642;SDS011;3357;48.050;7.800;2024-01-07T13:35:41;10.77;;;6.43;;
6642;SDS011;3357;48.050;7.800;2024-01-07T13:38:07;9.63;;;6.03;;
6642;SDS011;3357;48.050;7.800;2024-01-07T13:40:32;17.50;;;7.90;;
6642;SDS011;3357;48.050;7.800;2024-01-07T13:42:57;9.10;;;6.40;;
6642;SDS011;3357;48.050;7.800;2024-01-07T13:45:22;8.40;;;5.80;;
6642;SDS011;3357;48.050;7.800;2024-01-07T13:47:48;7.73;;;5.80;;
6642;SDS011;3357;48.050;7.800;2024-01-07T13:50:13;8.47;;;6.07;;
6642;SDS011;3357;48.050;7.800;2024-01-07T13:52:39;9.97;;;5.73;;
6642;SDS011;3357;48.050;7.800;2024-01-07T13:55:06;9.50;;;6.10;;
6642;SDS011;3357;48.050;7.800;2024-01-07T13:57:34;7.17;;;5.30;;
6642;SDS011;3357;48.050;7.800;2024-01-07T14:00:00;8.90;;;6.10;;
6642;SDS011;3357;48.050;7.800;2024-01-07T14:02:25;11.10;;;6.10;;
6642;SDS011;3357;48.050;7.800;2024-01-07T14:04:50;10.73;;;6.63;;
6642;SDS011;3357;48.050;7.800;2024-01-07T14:07:16;9.93;;;6.60;;
6642;SDS011;3357;48.050;7.800;2024-01-07T14:09:41;9.80;;;6.43;;
6642;SDS011;3357;48.050;7.800;2024-01-07T14:12:07;7.30;;;5.30;;
6642;SDS011;3357;48.050;7.800;2024-01-07T14:14:32;10.10;;;6.57;;
6642;SDS011;3357;48.050;7.800;2024-01-07T14:16:58;13.90;;;6.20;;
6642;SDS011;3357;48.050;7.800;2024-01-07T14:19:24;10.07;;;5.90;;
6642;SDS011;3357;48.050;7.800;2024-01-07T14:21:49;7.93;;;5.40;;
6642;SDS011;3357;48.050;7.800;2024-01-07T14:24:15;9.30;;;6.17;;
6642;SDS011;3357;48.050;7.800;2024-01-07T14:26:40;9.27;;;5.87;;
6642;SDS011;3357;48.050;7.800;2024-01-07T14:29:05;7.03;;;5.13;;
6642;SDS011;3357;48.050;7.800;2024-01-07T14:31:30;8.30;;;5.50;;
6642;SDS011;3357;48.050;7.800;2024-01-07T14:33:56;7.93;;;6.13;;
6642;SDS011;3357;48.050;7.800;2024-01-07T14:36:21;6.93;;;5.33;;
6642;SDS011;3357;48.050;7.800;2024-01-07T14:38:47;9.23;;;4.73;;
6642;SDS011;3357;48.050;7.800;2024-01-07T14:41:13;12.43;;;5.80;;
6642;SDS011;3357;48.050;7.800;2024-01-07T14:43:39;7.90;;;4.57;;
6642;SDS011;3357;48.050;7.800;2024-01-07T14:46:05;6.10;;;4.27;;
6642;SDS011;3357;48.050;7.800;2024-01-07T14:48:32;4.73;;;4.13;;
6642;SDS011;3357;48.050;7.800;2024-01-07T14:50:57;6.83;;;4.77;;
6642;SDS011;3357;48.050;7.800;2024-01-07T14:53:23;7.50;;;5.10;;
6642;SDS011;3357;48.050;7.800;2024-01-07T14:55:48;4.10;;;3.70;;
6642;SDS011;3357;48.050;7.800;2024-01-07T14:58:13;6.37;;;5.10;;
6642;SDS011;3357;48.050;7.800;2024-01-07T15:00:39;5.83;;;4.30;;
6642;SDS011;3357;48.050;7.800;2024-01-07T15:03:05;9.13;;;4.77;;